Time;durP1;ratioP1;P1;durP2;ratioP2;P2;SDS_P1;SDS_P2;PMS_P1;PMS_P2;Temp;Humidity;BMP_temperature;BMP_pressure;BME280_temperature;BME280_humidity;BME280_pressure;Samples;Min_cycle;Max_cycle;Signal;HPM_P1;HPM_P2
2022/04/04 17:40:09;;;;;;;17.63;6.88;;;;;;;12.79;72.02;100607.25;5021945;28;20402;-60
2022/04/04 17:42:34;;;;;;;15.60;6.57;;;;;;;12.82;71.70;100608.97;4998471;28;20666;-59
2022/04/04 17:45:00;;;;;;;19.90;7.22;;;;;;;12.79;71.91;100604.63;4983591;28;20045;-59
2022/04/04 17:47:26;;;;;;;20.60;7.25;;;;;;;12.87;71.72;100600.25;4990643;28;20068;-57
2022/04/04 17:49:52;;;;;;;16.98;6.88;;;;;;;12.85;71.95;100593.28;4969233;28;20414;-57
2022/04/04 17:52:17;;;;;;;12.93;6.30;;;;;;;12.85;72.09;100591.53;4964466;28;20381;-58
2022/04/04 17:54:43;;;;;;;17.15;6.82;;;;;;;12.85;72.09;100596.78;4970598;28;20583;-59
2022/04/04 17:57:08;;;;;;;14.43;6.43;;;;;;;12.84;71.92;100596.78;4967180;28;20113;-57
2022/04/04 17:59:34;;;;;;;17.73;6.82;;;;;;;12.91;71.69;100593.28;4969042;28;20322;-57
2022/04/04 18:02:01;;;;;;;15.82;6.90;;;;;;;12.77;72.34;100595.03;4963709;28;20056;-58
2022/04/04 18:04:26;;;;;;;15.13;6.88;;;;;;;12.89;72.12;100595.03;4964191;28;20116;-58
2022/04/04 18:06:55;;;;;;;16.00;7.13;;;;;;;12.89;71.72;100587.16;4971841;28;20054;-58
2022/04/04 18:09:21;;;;;;;16.02;6.63;;;;;;;12.92;71.78;100582.81;4967273;28;20371;-59
2022/04/04 18:11:50;;;;;;;18.23;7.13;;;;;;;12.93;71.68;100584.53;4967009;28;20074;-59
2022/04/04 18:14:18;;;;;;;13.48;6.70;;;;;;;12.94;71.72;100588.03;4959454;28;20136;-58
2022/04/04 18:16:44;;;;;;;17.63;6.68;;;;;;;13.01;71.45;100589.78;4961389;28;20310;-60
2022/04/04 18:19:10;;;;;;;13.40;6.40;;;;;;;13.08;71.14;100581.06;4966266;28;20050;-60
2022/04/04 18:21:35;;;;;;;14.50;6.45;;;;;;;13.04;71.15;100579.31;4968339;28;20122;-58
2022/04/04 18:24:18;;;;;;;19.23;6.90;;;;;;;13.11;70.91;100594.16;4971955;28;20530;-56
2022/04/04 18:26:44;;;;;;;19.25;6.60;;;;;;;13.09;70.90;100590.66;4960185;28;20500;-59
2022/04/04 18:29:14;;;;;;;15.45;6.43;;;;;;;13.07;70.87;100591.50;4969752;28;20070;-59
2022/04/04 18:31:39;;;;;;;13.45;6.10;;;;;;;13.12;70.88;100595.00;4965184;28;20238;-59
2022/04/04 18:34:05;;;;;;;15.93;6.47;;;;;;;13.12;70.79;100597.59;4962975;28;20065;-58
2022/04/04 18:36:31;;;;;;;15.45;6.70;;;;;;;13.12;70.74;100589.75;4980626;28;20046;-57
2022/04/04 18:38:58;;;;;;;18.55;6.63;;;;;;;13.17;70.60;100602.03;4970234;28;20054;-58
2022/04/04 18:41:24;;;;;;;16.88;7.20;;;;;;;13.20;70.67;100593.28;4962821;28;20064;-59
2022/04/04 18:43:51;;;;;;;16.17;6.78;;;;;;;13.11;70.94;100586.28;4965364;28;20896;-59
2022/04/04 18:46:19;;;;;;;20.23;7.07;;;;;;;13.08;71.51;100588.91;4960408;28;21396;-57
2022/04/04 18:48:46;;;;;;;15.98;7.07;;;;;;;13.13;71.40;100586.31;4955238;28;20046;-58
2022/04/04 18:51:11;;;;;;;15.38;7.60;;;;;;;13.01;71.77;100584.53;4960307;28;20038;-57
2022/04/04 18:53:37;;;;;;;17.35;7.55;;;;;;;13.01;71.67;100584.53;4947024;28;20542;-57
2022/04/04 18:56:03;;;;;;;17.25;7.65;;;;;;;12.99;71.63;100581.91;4950913;28;20686;-58
2022/04/04 18:58:29;;;;;;;18.38;7.45;;;;;;;12.89;72.21;100572.34;4945881;28;20279;-57
2022/04/04 19:00:54;;;;;;;20.08;7.18;;;;;;;12.98;71.79;100582.81;4956637;28;20046;-58
2022/04/04 19:03:20;;;;;;;24.92;7.65;;;;;;;12.89;72.38;100577.59;4947889;28;20054;-56
2022/04/04 19:05:45;;;;;;;17.90;7.18;;;;;;;12.96;72.38;100581.06;4953757;28;20405;-55
2022/04/04 19:08:10;;;;;;;16.80;7.53;;;;;;;12.89;72.69;100582.81;4949320;28;20054;-56
2022/04/04 19:10:37;;;;;;;18.23;7.10;;;;;;;12.93;72.49;100587.16;4959481;28;20410;-57
2022/04/04 19:13:03;;;;;;;22.35;7.10;;;;;;;12.91;72.51;100573.22;4949980;28;20290;-55
2022/04/04 19:15:29;;;;;;;19.92;7.30;;;;;;;12.95;72.70;100580.19;4947924;28;20038;-56
2022/04/04 19:17:55;;;;;;;21.20;7.22;;;;;;;13.00;72.49;100577.56;4949508;28;20204;-59
2022/04/04 19:20:20;;;;;;;18.52;6.90;;;;;;;13.02;72.33;100584.56;4956149;28;20058;-57
2022/04/04 19:22:47;;;;;;;17.05;6.78;;;;;;;12.99;72.36;100575.84;4954698;28;20502;-56
2022/04/04 19:25:16;;;;;;;16.98;6.60;;;;;;;13.01;72.55;100581.94;4955008;28;20046;-55
2022/04/04 19:27:41;;;;;;;16.70;7.03;;;;;;;12.99;72.20;100587.16;4953725;28;20073;-59
2022/04/04 19:30:11;;;;;;;22.00;6.88;;;;;;;12.94;72.68;100590.66;4963486;28;20042;-55
2022/04/04 19:32:39;;;;;;;17.08;7.32;;;;;;;13.00;72.43;100583.66;4947482;28;20043;-56
2022/04/04 19:35:06;;;;;;;16.75;7.10;;;;;;;12.95;72.72;100590.66;4943296;28;20505;-56
2022/04/04 19:37:32;;;;;;;19.55;7.18;;;;;;;13.04;72.61;100595.03;4957376;28;20046;-57
2022/04/04 19:39:58;;;;;;;16.77;6.88;;;;;;;13.06;72.50;100592.38;4947168;28;20387;-54
2022/04/04 19:42:24;;;;;;;16.50;7.55;;;;;;;13.12;72.37;100595.00;4949886;28;20116;-57
2022/04/04 19:44:49;;;;;;;19.30;8.05;;;;;;;13.06;72.62;100581.91;4953975;28;20038;-57
2022/04/04 19:47:14;;;;;;;18.17;7.75;;;;;;;13.10;72.29;100587.16;4953589;28;20342;-57
2022/04/04 19:49:40;;;;;;;20.25;8.77;;;;;;;13.10;72.46;100591.53;4949618;28;21575;-57
2022/04/04 19:52:10;;;;;;;23.55;8.43;;;;;;;13.02;72.93;100583.69;4940488;28;20101;-59
2022/04/04 19:54:37;;;;;;;24.60;8.63;;;;;;;12.97;72.57;100585.44;4946974;28;20093;-59
2022/04/04 19:57:04;;;;;;;20.00;8.60;;;;;;;13.08;72.64;100594.13;4954520;28;20042;-60
2022/04/04 19:59:29;;;;;;;19.90;8.93;;;;;;;12.98;72.82;100587.19;4957708;28;20551;-60
2022/04/04 20:01:58;;;;;;;17.77;8.77;;;;;;;13.06;72.68;100593.25;4950565;28;20058;-60
2022/04/04 20:04:24;;;;;;;20.25;8.38;;;;;;;12.99;72.80;100602.84;4955379;28;20404;-59
2022/04/04 20:06:50;;;;;;;17.65;8.60;;;;;;;13.04;73.16;100589.78;4955933;28;20425;-62
2022/04/04 20:09:15;;;;;;;18.33;8.25;;;;;;;13.03;73.20;100585.44;4951841;28;20049;-61
2022/04/04 20:11:41;;;;;;;18.17;8.50;;;;;;;12.97;73.17;100601.13;4949954;28;20062;-59
2022/04/04 20:14:06;;;;;;;16.42;8.15;;;;;;;13.06;73.42;100598.50;4954942;28;20100;-60
2022/04/04 20:16:31;;;;;;;11.98;7.10;;;;;;;13.04;73.82;100594.16;4947813;28;20466;-60
2022/04/04 20:18:57;;;;;;;15.15;7.10;;;;;;;13.05;73.42;100590.66;4950609;28;20085;-60
2022/04/04 20:21:24;;;;;;;11.85;6.60;;;;;;;13.11;73.53;100598.50;4954425;28;20066;-60
2022/04/04 20:23:52;;;;;;;11.88;6.55;;;;;;;13.12;73.71;100589.75;4951802;28;20053;-60
2022/04/04 20:26:17;;;;;;;12.40;6.90;;;;;;;13.08;73.84;100593.25;4944674;28;20055;-59
2022/04/04 20:28:43;;;;;;;12.10;7.10;;;;;;;13.14;73.69;100588.94;4953726;28;20397;-60
2022/04/04 20:31:08;;;;;;;12.43;7.22;;;;;;;13.23;73.43;100581.06;4956976;28;20498;-59
2022/04/04 20:33:34;;;;;;;16.40;7.70;;;;;;;13.17;73.42;100593.31;4952968;28;20096;-59
2022/04/04 20:36:00;;;;;;;17.33;8.07;;;;;;;13.17;73.66;100593.31;4947219;28;20054;-57
2022/04/04 20:38:25;;;;;;;18.40;8.25;;;;;;;13.14;73.64;100594.16;4944170;28;20093;-60
2022/04/04 20:40:54;;;;;;;22.73;8.68;;;;;;;13.13;73.41;100594.16;4955180;28;20072;-59
2022/04/04 20:43:20;;;;;;;17.40;8.27;;;;;;;13.07;73.45;100591.50;4955145;28;20552;-59
2022/04/04 20:45:46;;;;;;;24.67;8.63;;;;;;;13.01;73.68;100595.88;4949241;28;20299;-59
2022/04/04 20:48:11;;;;;;;18.10;9.13;;;;;;;12.95;73.70;100598.50;4947904;28;20041;-60
2022/04/04 20:50:38;;;;;;;21.13;8.43;;;;;;;12.95;73.59;100592.41;4948715;28;20144;-59
2022/04/04 20:53:03;;;;;;;19.27;8.57;;;;;;;13.10;73.14;100594.16;4952009;28;20069;-59
2022/04/04 20:55:34;;;;;;;21.20;8.07;;;;;;;12.98;73.13;100592.41;4948999;28;20041;-59
2022/04/04 20:57:59;;;;;;;25.35;8.10;;;;;;;12.97;73.04;100599.38;4943013;28;20117;-61
2022/04/04 21:00:25;;;;;;;19.70;7.70;;;;;;;12.98;73.01;100600.25;4952758;28;20348;-59
2022/04/04 21:02:50;;;;;;;20.25;7.28;;;;;;;12.97;72.82;100599.38;4952499;28;20046;-59
2022/04/04 21:05:16;;;;;;;21.27;7.60;;;;;;;13.06;72.60;100595.00;4946292;28;20561;-59
2022/04/04 21:07:41;;;;;;;16.98;6.57;;;;;;;13.01;72.64;100593.28;4947367;28;20455;-59
2022/04/04 21:10:07;;;;;;;19.50;6.70;;;;;;;12.94;72.50;100588.03;4945867;28;20505;-59
2022/04/04 21:12:33;;;;;;;17.10;6.53;;;;;;;12.93;72.74;100587.16;4950487;28;20560;-60
2022/04/04 21:14:59;;;;;;;17.40;6.90;;;;;;;12.96;72.97;100581.06;4956329;28;20052;-60
2022/04/04 21:17:26;;;;;;;22.25;6.60;;;;;;;12.90;72.94;100592.41;4954179;28;20038;-60
2022/04/04 21:19:52;;;;;;;15.18;6.35;;;;;;;12.96;72.73;100586.31;4939059;28;20647;-60
2022/04/04 21:22:18;;;;;;;18.00;6.25;;;;;;;12.93;72.92;100586.28;4942870;28;20046;-59
2022/04/04 21:24:44;;;;;;;23.08;6.47;;;;;;;12.99;72.56;100591.53;4944598;28;20373;-60
2022/04/04 21:27:10;;;;;;;21.63;6.18;;;;;;;12.88;73.04;100585.44;4955400;28;20050;-59
2022/04/04 21:29:36;;;;;;;20.38;6.32;;;;;;;12.85;73.34;100591.53;4952118;28;20066;-57
2022/04/04 21:32:02;;;;;;;16.25;5.95;;;;;;;12.92;72.92;100595.03;4948673;28;20173;-57
2022/04/04 21:34:27;;;;;;;13.98;6.05;;;;;;;12.91;73.06;100593.28;4956344;28;20563;-60
2022/04/04 21:36:54;;;;;;;15.27;6.35;;;;;;;12.96;72.89;100594.16;4951395;28;20033;-57
2022/04/04 21:39:19;;;;;;;19.92;6.32;;;;;;;12.94;72.60;100585.41;4944685;28;20395;-57
2022/04/04 21:41:44;;;;;;;20.00;5.93;;;;;;;12.99;72.74;100588.94;4954525;28;20054;-56
2022/04/04 21:44:10;;;;;;;15.00;6.45;;;;;;;13.00;72.76;100595.88;4944514;28;20269;-56
2022/04/04 21:46:36;;;;;;;14.77;6.35;;;;;;;13.01;72.63;100585.41;4954571;28;20192;-55
2022/04/04 21:49:01;;;;;;;12.38;5.80;;;;;;;13.07;72.72;100586.28;4952704;28;20101;-59
2022/04/04 21:51:27;;;;;;;15.52;6.03;;;;;;;12.99;72.84;100592.38;4948650;28;20109;-56
2022/04/04 21:53:53;;;;;;;17.00;5.80;;;;;;;13.08;72.69;100598.50;4943500;28;20046;-56
2022/04/04 21:56:18;;;;;;;14.38;5.75;;;;;;;13.15;72.43;100595.91;4948741;28;20120;-57
2022/04/04 21:58:44;;;;;;;12.93;5.70;;;;;;;13.19;72.29;100599.38;4955669;28;20054;-58
2022/04/04 22:01:10;;;;;;;13.93;6.35;;;;;;;13.15;72.14;100593.28;4955573;28;20057;-58
2022/04/04 22:03:36;;;;;;;14.85;6.20;;;;;;;13.11;72.51;100594.16;4953057;28;20046;-58
2022/04/04 22:06:02;;;;;;;16.52;6.40;;;;;;;13.14;72.40;100598.53;4944430;28;20512;-57
2022/04/04 22:08:27;;;;;;;17.58;6.15;;;;;;;13.08;72.48;100602.00;4951317;28;20106;-59
2022/04/04 22:10:52;;;;;;;16.75;6.05;;;;;;;13.09;72.34;100603.75;4949723;28;21486;-59
2022/04/04 22:13:17;;;;;;;19.00;6.80;;;;;;;13.10;72.72;100594.16;4954315;28;20050;-58
2022/04/04 22:15:43;;;;;;;14.55;5.90;;;;;;;13.17;72.47;100599.41;4950357;28;20046;-58
2022/04/04 22:18:08;;;;;;;14.65;6.28;;;;;;;13.18;72.44;100598.50;4949361;28;20077;-58
2022/04/04 22:20:33;;;;;;;17.55;6.18;;;;;;;13.15;72.54;100603.75;4953560;28;20552;-59
2022/04/04 22:22:59;;;;;;;15.20;6.80;;;;;;;13.16;72.67;100610.75;4952121;28;20120;-58
2022/04/04 22:25:25;;;;;;;13.05;6.40;;;;;;;13.12;72.62;100613.31;4960134;28;20592;-60
2022/04/04 22:27:51;;;;;;;13.50;6.25;;;;;;;13.16;72.31;100607.25;4956893;28;20359;-59
2022/04/04 22:30:16;;;;;;;15.18;6.20;;;;;;;13.09;72.18;100611.59;4952578;28;20500;-57
2022/04/04 22:32:46;;;;;;;14.50;6.10;;;;;;;13.14;72.18;100609.00;4957091;28;20136;-58
2022/04/04 22:35:14;;;;;;;13.98;6.20;;;;;;;13.20;72.01;100611.59;4951641;28;20133;-58
2022/04/04 22:37:40;;;;;;;14.57;6.22;;;;;;;13.17;72.19;100609.00;4953562;28;20144;-58
2022/04/04 22:40:08;;;;;;;16.67;6.53;;;;;;;13.14;72.16;100601.13;4948858;28;20116;-59
2022/04/04 22:42:36;;;;;;;16.88;6.28;;;;;;;13.16;72.18;100610.75;4958476;28;20045;-59
2022/04/04 22:45:03;;;;;;;17.17;6.10;;;;;;;13.10;72.22;100613.34;4953246;28;20043;-59
2022/04/04 22:47:29;;;;;;;16.63;6.70;;;;;;;13.12;72.00;100610.69;4955807;28;20044;-58
2022/04/04 22:49:54;;;;;;;17.70;6.65;;;;;;;13.01;72.47;100608.97;4955912;28;20051;-57
2022/04/04 22:52:20;;;;;;;18.75;7.00;;;;;;;12.98;72.47;100601.13;4945281;28;20042;-56
2022/04/04 22:54:45;;;;;;;14.45;6.32;;;;;;;13.04;72.20;100615.09;4949014;28;20499;-56
2022/04/04 22:57:11;;;;;;;15.27;6.68;;;;;;;13.02;72.23;100617.69;4954382;28;20126;-57
2022/04/04 22:59:36;;;;;;;17.25;6.70;;;;;;;12.94;72.32;100615.06;4952403;28;20043;-56
2022/04/04 23:02:02;;;;;;;19.88;6.50;;;;;;;12.98;72.51;100614.22;4947418;28;20116;-58
2022/04/04 23:04:27;;;;;;;15.68;6.18;;;;;;;12.96;72.05;100609.84;4952559;28;20046;-56
2022/04/04 23:06:53;;;;;;;15.88;6.20;;;;;;;12.95;72.17;100622.06;4954375;28;20477;-56
2022/04/04 23:09:18;;;;;;;15.48;5.82;;;;;;;12.99;71.75;100620.34;4954691;28;20061;-58
2022/04/04 23:11:43;;;;;;;14.18;5.68;;;;;;;12.94;71.76;100624.66;4958291;28;20073;-56
2022/04/04 23:14:09;;;;;;;16.27;5.93;;;;;;;12.92;71.64;100626.44;4949308;28;20265;-58
2022/04/04 23:16:34;;;;;;;15.85;5.90;;;;;;;12.93;71.75;100628.16;4950787;28;20561;-57
2022/04/04 23:18:59;;;;;;;18.85;5.78;;;;;;;12.93;71.88;100631.63;4944053;28;20994;-56
2022/04/04 23:21:25;;;;;;;18.50;6.00;;;;;;;12.86;71.76;100634.28;4955943;28;20092;-56
2022/04/04 23:23:51;;;;;;;20.88;5.93;;;;;;;12.78;72.18;100633.41;4955795;28;20069;-56
2022/04/04 23:26:16;;;;;;;19.73;6.20;;;;;;;12.82;72.08;100637.75;4947600;28;20042;-58
2022/04/04 23:28:41;;;;;;;22.48;6.30;;;;;;;12.74;72.07;100640.38;4954875;28;20304;-59
2022/04/04 23:31:07;;;;;;;18.02;6.07;;;;;;;12.81;72.14;100644.72;4957404;28;20050;-58
2022/04/04 23:33:32;;;;;;;18.27;6.05;;;;;;;12.88;71.68;100650.84;4955619;28;20050;-58
2022/04/04 23:35:57;;;;;;;13.07;6.05;;;;;;;12.71;72.33;100640.38;4945257;28;20910;-59
2022/04/04 23:38:23;;;;;;;17.08;6.85;;;;;;;12.77;72.23;100647.34;4958809;28;20050;-59
2022/04/04 23:40:50;;;;;;;16.70;6.72;;;;;;;12.76;72.14;100654.31;4956786;28;20525;-59
2022/04/04 23:43:16;;;;;;;16.02;6.50;;;;;;;12.71;72.41;100648.22;4956018;28;20476;-59
2022/04/04 23:45:41;;;;;;;18.38;6.95;;;;;;;12.65;72.57;100644.72;4957234;28;20034;-58
2022/04/04 23:48:07;;;;;;;17.88;6.63;;;;;;;12.66;72.48;100649.09;4945923;28;20046;-59
2022/04/04 23:50:32;;;;;;;17.25;6.18;;;;;;;12.68;72.32;100639.50;4959384;28;20038;-58
2022/04/04 23:53:01;;;;;;;17.42;5.28;;;;;;;12.56;72.58;100648.22;4952576;28;20660;-57
2022/04/04 23:55:26;;;;;;;15.48;5.53;;;;;;;12.63;72.64;100651.69;4957005;28;20385;-58
2022/04/04 23:57:52;;;;;;;15.82;5.60;;;;;;;12.57;72.62;100640.34;4948842;28;20490;-58
